Appleyard, Washington
Current Conditions -  °F | °C
As of 9:55 AM on Sunday 21 Dec 2014 (Local Time) from KEAT Reporting Station
Light Rain Light Rain  
Wind Chill: 39°   Ceiling: 4400
Heat Index: 43°   Visibility: 10mi
Dew Point: 39°   Wind: 6mph
Humidity: 86%   Direction: 260°W
Pressure: 29.84"   Gusts: NA
Location:  47.3635°N, 120.348°W
Report Text: KEAT 211755Z AUTO 26005KT 10SM -RA BKN044 BKN055 OVC070 06/04 A2984 RMK AO2 RAB16 SLP111 P0000 60006 T00610039 10067 20022 53038
Loading
Personal Weather Stations






























Interactive Weather Map New forecast layout! Learn more

10-Day Weather Forecast

Advertisements
Track Severe Weather on mobile